sensor_id;sensor_type;location;lat;lon;timestamp;temperature;humidity
2010;DHT22;1008;47.404;8.502;2023-07-16T00:01:04;18.70;99.90
2010;DHT22;1008;47.404;8.502;2023-07-16T00:03:31;18.50;99.90
2010;DHT22;1008;47.404;8.502;2023-07-16T00:05:58;18.40;99.90
2010;DHT22;1008;47.404;8.502;2023-07-16T00:08:24;18.40;99.90
2010;DHT22;1008;47.404;8.502;2023-07-16T00:10:51;18.50;99.90
2010;DHT22;1008;47.404;8.502;2023-07-16T00:13:18;18.40;99.90
2010;DHT22;1008;47.404;8.502;2023-07-16T00:15:46;18.20;99.90
2010;DHT22;1008;47.404;8.502;2023-07-16T00:18:12;18.10;99.90
2010;DHT22;1008;47.404;8.502;2023-07-16T00:20:39;18.20;99.90
2010;DHT22;1008;47.404;8.502;2023-07-16T00:23:06;18.20;99.90
2010;DHT22;1008;47.404;8.502;2023-07-16T00:25:32;18.40;99.90
2010;DHT22;1008;47.404;8.502;2023-07-16T00:28:00;18.20;99.90
2010;DHT22;1008;47.404;8.502;2023-07-16T00:30:27;18.10;99.90
2010;DHT22;1008;47.404;8.502;2023-07-16T00:32:55;18.20;99.90
2010;DHT22;1008;47.404;8.502;2023-07-16T00:35:22;18.10;99.90
2010;DHT22;1008;47.404;8.502;2023-07-16T00:37:49;18.20;99.90
2010;DHT22;1008;47.404;8.502;2023-07-16T00:40:15;18.20;99.90
2010;DHT22;1008;47.404;8.502;2023-07-16T00:42:42;18.20;99.90
2010;DHT22;1008;47.404;8.502;2023-07-16T00:45:12;18.20;99.90
2010;DHT22;1008;47.404;8.502;2023-07-16T00:47:40;18.30;99.90
2010;DHT22;1008;47.404;8.502;2023-07-16T00:50:10;18.30;99.90
2010;DHT22;1008;47.404;8.502;2023-07-16T00:52:38;18.40;99.90
2010;DHT22;1008;47.404;8.502;2023-07-16T00:55:06;18.60;99.90
2010;DHT22;1008;47.404;8.502;2023-07-16T00:57:34;18.50;99.90
2010;DHT22;1008;47.404;8.502;2023-07-16T01:00:00;18.70;99.90
2010;DHT22;1008;47.404;8.502;2023-07-16T01:02:27;18.60;99.90
2010;DHT22;1008;47.404;8.502;2023-07-16T01:04:54;18.60;99.90
2010;DHT22;1008;47.404;8.502;2023-07-16T01:07:24;18.60;99.90
2010;DHT22;1008;47.404;8.502;2023-07-16T01:09:53;18.70;99.90
2010;DHT22;1008;47.404;8.502;2023-07-16T01:12:22;18.70;99.90
2010;DHT22;1008;47.404;8.502;2023-07-16T01:14:50;18.90;99.90
2010;DHT22;1008;47.404;8.502;2023-07-16T01:17:17;18.70;99.90
2010;DHT22;1008;47.404;8.502;2023-07-16T01:19:44;18.80;99.90
2010;DHT22;1008;47.404;8.502;2023-07-16T01:22:34;19.00;99.90
2010;DHT22;1008;47.404;8.502;2023-07-16T01:25:13;19.30;99.90
2010;DHT22;1008;47.404;8.502;2023-07-16T01:30:44;19.40;99.90
2010;DHT22;1008;47.404;8.502;2023-07-16T01:33:12;19.40;99.90
2010;DHT22;1008;47.404;8.502;2023-07-16T01:35:40;19.30;99.90
2010;DHT22;1008;47.404;8.502;2023-07-16T01:38:10;19.30;99.90
2010;DHT22;1008;47.404;8.502;2023-07-16T01:40:37;19.40;99.90
2010;DHT22;1008;47.404;8.502;2023-07-16T01:43:03;19.50;99.90
2010;DHT22;1008;47.404;8.502;2023-07-16T01:45:30;19.60;99.90
2010;DHT22;1008;47.404;8.502;2023-07-16T01:48:05;19.80;99.90
2010;DHT22;1008;47.404;8.502;2023-07-16T01:50:35;19.80;99.90
2010;DHT22;1008;47.404;8.502;2023-07-16T01:53:02;19.70;99.90
2010;DHT22;1008;47.404;8.502;2023-07-16T01:55:28;19.80;99.90
2010;DHT22;1008;47.404;8.502;2023-07-16T01:57:55;19.70;99.90
2010;DHT22;1008;47.404;8.502;2023-07-16T02:00:22;19.60;99.90
2010;DHT22;1008;47.404;8.502;2023-07-16T02:02:49;19.50;99.90
2010;DHT22;1008;47.404;8.502;2023-07-16T02:05:17;19.30;99.90
2010;DHT22;1008;47.404;8.502;2023-07-16T02:07:43;19.10;99.90
2010;DHT22;1008;47.404;8.502;2023-07-16T02:10:10;19.00;99.90
2010;DHT22;1008;47.404;8.502;2023-07-16T02:12:37;19.00;99.90
2010;DHT22;1008;47.404;8.502;2023-07-16T02:15:04;18.60;99.90
2010;DHT22;1008;47.404;8.502;2023-07-16T02:17:31;18.60;99.90
2010;DHT22;1008;47.404;8.502;2023-07-16T02:19:57;18.90;99.90
2010;DHT22;1008;47.404;8.502;2023-07-16T02:22:25;18.70;99.90
2010;DHT22;1008;47.404;8.502;2023-07-16T02:24:52;18.70;99.90
2010;DHT22;1008;47.404;8.502;2023-07-16T02:27:19;18.80;99.90
2010;DHT22;1008;47.404;8.502;2023-07-16T02:29:45;18.90;99.90
2010;DHT22;1008;47.404;8.502;2023-07-16T02:32:12;19.10;99.90
2010;DHT22;1008;47.404;8.502;2023-07-16T02:34:39;19.20;99.90
2010;DHT22;1008;47.404;8.502;2023-07-16T02:37:05;19.40;99.90
2010;DHT22;1008;47.404;8.502;2023-07-16T02:39:33;19.20;99.90
2010;DHT22;1008;47.404;8.502;2023-07-16T02:42:00;18.90;99.90
2010;DHT22;1008;47.404;8.502;2023-07-16T02:44:27;18.70;99.90
2010;DHT22;1008;47.404;8.502;2023-07-16T02:46:53;18.40;99.90
2010;DHT22;1008;47.404;8.502;2023-07-16T02:49:20;18.20;99.90
2010;DHT22;1008;47.404;8.502;2023-07-16T02:51:47;18.30;99.90
2010;DHT22;1008;47.404;8.502;2023-07-16T02:54:13;18.30;99.90
2010;DHT22;1008;47.404;8.502;2023-07-16T02:56:41;18.30;99.90
2010;DHT22;1008;47.404;8.502;2023-07-16T02:59:08;18.50;99.90
2010;DHT22;1008;47.404;8.502;2023-07-16T03:01:35;18.70;99.90
2010;DHT22;1008;47.404;8.502;2023-07-16T03:04:01;18.80;99.90
2010;DHT22;1008;47.404;8.502;2023-07-16T03:06:28;18.60;99.90
2010;DHT22;1008;47.404;8.502;2023-07-16T03:08:55;18.50;99.90
2010;DHT22;1008;47.404;8.502;2023-07-16T03:11:22;18.50;99.90
2010;DHT22;1008;47.404;8.502;2023-07-16T03:13:50;18.50;99.90
2010;DHT22;1008;47.404;8.502;2023-07-16T03:16:17;18.70;99.90
2010;DHT22;1008;47.404;8.502;2023-07-16T03:18:44;18.70;99.90
2010;DHT22;1008;47.404;8.502;2023-07-16T03:21:11;18.60;99.90
2010;DHT22;1008;47.404;8.502;2023-07-16T03:23:37;18.70;99.90
2010;DHT22;1008;47.404;8.502;2023-07-16T03:26:04;18.70;99.90
2010;DHT22;1008;47.404;8.502;2023-07-16T03:28:31;18.60;99.90
2010;DHT22;1008;47.404;8.502;2023-07-16T03:30:59;18.60;99.90
2010;DHT22;1008;47.404;8.502;2023-07-16T03:33:26;18.70;99.90
2010;DHT22;1008;47.404;8.502;2023-07-16T03:35:52;18.90;99.90
2010;DHT22;1008;47.404;8.502;2023-07-16T03:38:19;18.70;99.90
2010;DHT22;1008;47.404;8.502;2023-07-16T03:40:47;18.70;99.90
2010;DHT22;1008;47.404;8.502;2023-07-16T03:43:14;18.60;99.90
2010;DHT22;1008;47.404;8.502;2023-07-16T03:45:41;18.60;99.90
2010;DHT22;1008;47.404;8.502;2023-07-16T03:48:09;18.40;99.90
2010;DHT22;1008;47.404;8.502;2023-07-16T03:50:35;18.40;99.90
2010;DHT22;1008;47.404;8.502;2023-07-16T03:53:02;18.50;99.90
2010;DHT22;1008;47.404;8.502;2023-07-16T03:55:29;18.70;99.90
2010;DHT22;1008;47.404;8.502;2023-07-16T03:57:56;18.50;99.90
2010;DHT22;1008;47.404;8.502;2023-07-16T04:00:23;18.60;99.90
2010;DHT22;1008;47.404;8.502;2023-07-16T04:02:49;18.40;99.90
2010;DHT22;1008;47.404;8.502;2023-07-16T04:05:17;18.40;99.90
2010;DHT22;1008;47.404;8.502;2023-07-16T04:07:44;18.50;99.90
2010;DHT22;1008;47.404;8.502;2023-07-16T04:10:11;18.70;99.90
2010;DHT22;1008;47.404;8.502;2023-07-16T04:12:37;18.90;99.90
2010;DHT22;1008;47.404;8.502;2023-07-16T04:15:07;19.00;99.90
2010;DHT22;1008;47.404;8.502;2023-07-16T04:17:35;19.10;99.90
2010;DHT22;1008;47.404;8.502;2023-07-16T04:20:01;19.30;99.90
2010;DHT22;1008;47.404;8.502;2023-07-16T04:22:31;19.10;99.90
2010;DHT22;1008;47.404;8.502;2023-07-16T04:24:58;18.80;99.90
2010;DHT22;1008;47.404;8.502;2023-07-16T04:27:25;19.10;99.90
2010;DHT22;1008;47.404;8.502;2023-07-16T04:29:51;19.10;99.90
2010;DHT22;1008;47.404;8.502;2023-07-16T04:32:18;19.20;99.90
2010;DHT22;1008;47.404;8.502;2023-07-16T04:34:45;19.00;99.90
2010;DHT22;1008;47.404;8.502;2023-07-16T04:37:11;19.20;99.90
2010;DHT22;1008;47.404;8.502;2023-07-16T04:39:39;19.50;99.90
2010;DHT22;1008;47.404;8.502;2023-07-16T04:42:06;19.70;99.90
2010;DHT22;1008;47.404;8.502;2023-07-16T04:44:33;19.60;99.90
2010;DHT22;1008;47.404;8.502;2023-07-16T04:46:59;19.60;99.90
2010;DHT22;1008;47.404;8.502;2023-07-16T04:49:26;19.30;99.90
2010;DHT22;1008;47.404;8.502;2023-07-16T04:51:53;19.20;99.90
2010;DHT22;1008;47.404;8.502;2023-07-16T04:54:19;19.40;99.90
2010;DHT22;1008;47.404;8.502;2023-07-16T04:56:47;19.50;99.90
2010;DHT22;1008;47.404;8.502;2023-07-16T04:59:14;19.70;99.90
2010;DHT22;1008;47.404;8.502;2023-07-16T05:01:41;19.60;99.90
2010;DHT22;1008;47.404;8.502;2023-07-16T05:04:07;19.80;99.90
2010;DHT22;1008;47.404;8.502;2023-07-16T05:06:34;19.90;99.90
2010;DHT22;1008;47.404;8.502;2023-07-16T05:09:01;19.90;99.90
2010;DHT22;1008;47.404;8.502;2023-07-16T05:11:27;19.70;99.90
2010;DHT22;1008;47.404;8.502;2023-07-16T05:13:55;19.80;99.90
2010;DHT22;1008;47.404;8.502;2023-07-16T05:16:22;20.00;99.90
2010;DHT22;1008;47.404;8.502;2023-07-16T05:18:49;20.30;99.90
2010;DHT22;1008;47.404;8.502;2023-07-16T05:21:16;20.30;99.90
2010;DHT22;1008;47.404;8.502;2023-07-16T05:23:42;20.30;99.90
2010;DHT22;1008;47.404;8.502;2023-07-16T05:26:09;20.20;99.90
2010;DHT22;1008;47.404;8.502;2023-07-16T05:28:35;20.20;99.90
2010;DHT22;1008;47.404;8.502;2023-07-16T05:31:04;20.10;99.90
2010;DHT22;1008;47.404;8.502;2023-07-16T05:33:30;19.70;99.90
2010;DHT22;1008;47.404;8.502;2023-07-16T05:35:57;19.80;99.90
2010;DHT22;1008;47.404;8.502;2023-07-16T05:38:24;19.70;99.90
2010;DHT22;1008;47.404;8.502;2023-07-16T05:40:50;19.70;99.90
2010;DHT22;1008;47.404;8.502;2023-07-16T05:43:17;19.90;99.90
2010;DHT22;1008;47.404;8.502;2023-07-16T05:45:44;19.90;99.90
2010;DHT22;1008;47.404;8.502;2023-07-16T05:48:12;20.10;99.90
2010;DHT22;1008;47.404;8.502;2023-07-16T05:50:39;20.10;99.90
2010;DHT22;1008;47.404;8.502;2023-07-16T05:53:05;20.10;99.90
2010;DHT22;1008;47.404;8.502;2023-07-16T05:55:32;20.00;99.90
2010;DHT22;1008;47.404;8.502;2023-07-16T05:57:58;20.10;99.90
2010;DHT22;1008;47.404;8.502;2023-07-16T06:00:25;20.20;99.90
2010;DHT22;1008;47.404;8.502;2023-07-16T06:02:52;20.20;99.90
2010;DHT22;1008;47.404;8.502;2023-07-16T06:05:20;20.40;99.90
2010;DHT22;1008;47.404;8.502;2023-07-16T06:07:47;20.60;99.90
2010;DHT22;1008;47.404;8.502;2023-07-16T06:10:13;20.70;99.90
2010;DHT22;1008;47.404;8.502;2023-07-16T06:12:40;20.70;99.90
2010;DHT22;1008;47.404;8.502;2023-07-16T06:15:07;20.70;99.90
2010;DHT22;1008;47.404;8.502;2023-07-16T06:17:34;20.80;99.90
2010;DHT22;1008;47.404;8.502;2023-07-16T06:20:01;20.80;99.90
2010;DHT22;1008;47.404;8.502;2023-07-16T06:22:29;21.00;99.90
2010;DHT22;1008;47.404;8.502;2023-07-16T06:24:56;20.90;99.90
2010;DHT22;1008;47.404;8.502;2023-07-16T06:27:22;21.20;99.90
2010;DHT22;1008;47.404;8.502;2023-07-16T06:29:49;21.30;99.90
2010;DHT22;1008;47.404;8.502;2023-07-16T06:32:16;21.40;99.90
2010;DHT22;1008;47.404;8.502;2023-07-16T06:34:42;21.20;99.90
2010;DHT22;1008;47.404;8.502;2023-07-16T06:37:09;21.20;99.90
2010;DHT22;1008;47.404;8.502;2023-07-16T06:39:37;21.50;99.90
2010;DHT22;1008;47.404;8.502;2023-07-16T06:42:04;21.60;99.90
2010;DHT22;1008;47.404;8.502;2023-07-16T06:44:31;21.50;99.90
2010;DHT22;1008;47.404;8.502;2023-07-16T06:46:58;21.60;99.90
2010;DHT22;1008;47.404;8.502;2023-07-16T06:49:25;21.80;99.90
2010;DHT22;1008;47.404;8.502;2023-07-16T06:51:51;21.70;99.90
2010;DHT22;1008;47.404;8.502;2023-07-16T06:54:18;21.70;99.90
2010;DHT22;1008;47.404;8.502;2023-07-16T06:56:46;21.60;99.90
2010;DHT22;1008;47.404;8.502;2023-07-16T06:59:13;21.50;99.90
2010;DHT22;1008;47.404;8.502;2023-07-16T07:01:39;21.80;99.90
2010;DHT22;1008;47.404;8.502;2023-07-16T07:04:06;21.70;99.90
2010;DHT22;1008;47.404;8.502;2023-07-16T07:06:33;21.80;99.90
2010;DHT22;1008;47.404;8.502;2023-07-16T07:08:59;21.90;99.90
2010;DHT22;1008;47.404;8.502;2023-07-16T07:11:26;22.10;99.90
2010;DHT22;1008;47.404;8.502;2023-07-16T07:13:54;22.20;99.90
2010;DHT22;1008;47.404;8.502;2023-07-16T07:16:22;22.00;99.90
2010;DHT22;1008;47.404;8.502;2023-07-16T07:18:49;21.90;99.90
2010;DHT22;1008;47.404;8.502;2023-07-16T07:21:16;22.00;99.90
2010;DHT22;1008;47.404;8.502;2023-07-16T07:23:42;21.50;99.90
2010;DHT22;1008;47.404;8.502;2023-07-16T07:26:09;21.40;99.90
2010;DHT22;1008;47.404;8.502;2023-07-16T07:28:35;21.20;99.90
2010;DHT22;1008;47.404;8.502;2023-07-16T07:31:03;21.40;99.90
2010;DHT22;1008;47.404;8.502;2023-07-16T07:33:30;21.50;99.90
2010;DHT22;1008;47.404;8.502;2023-07-16T07:35:57;21.50;99.90
2010;DHT22;1008;47.404;8.502;2023-07-16T07:38:24;21.50;99.90
2010;DHT22;1008;47.404;8.502;2023-07-16T07:40:51;21.70;99.90
2010;DHT22;1008;47.404;8.502;2023-07-16T07:43:17;21.90;99.90
2010;DHT22;1008;47.404;8.502;2023-07-16T07:45:44;22.10;99.90
2010;DHT22;1008;47.404;8.502;2023-07-16T07:48:12;22.00;99.90
2010;DHT22;1008;47.404;8.502;2023-07-16T07:50:39;22.00;99.90
2010;DHT22;1008;47.404;8.502;2023-07-16T07:53:06;22.10;99.90
2010;DHT22;1008;47.404;8.502;2023-07-16T07:55:33;22.10;99.90
2010;DHT22;1008;47.404;8.502;2023-07-16T07:58:00;22.40;99.90
2010;DHT22;1008;47.404;8.502;2023-07-16T08:00:26;22.50;99.90
2010;DHT22;1008;47.404;8.502;2023-07-16T08:02:53;22.40;99.90
2010;DHT22;1008;47.404;8.502;2023-07-16T08:05:21;22.10;99.90
2010;DHT22;1008;47.404;8.502;2023-07-16T08:07:48;22.40;99.90
2010;DHT22;1008;47.404;8.502;2023-07-16T08:10:15;21.80;99.90
2010;DHT22;1008;47.404;8.502;2023-07-16T08:12:41;21.60;99.90
2010;DHT22;1008;47.404;8.502;2023-07-16T08:15:10;21.60;99.90
2010;DHT22;1008;47.404;8.502;2023-07-16T08:17:39;21.70;99.90
2010;DHT22;1008;47.404;8.502;2023-07-16T08:20:08;22.10;99.90
2010;DHT22;1008;47.404;8.502;2023-07-16T08:22:37;22.20;99.90
2010;DHT22;1008;47.404;8.502;2023-07-16T08:25:04;22.10;99.90
2010;DHT22;1008;47.404;8.502;2023-07-16T08:27:31;22.20;99.90
2010;DHT22;1008;47.404;8.502;2023-07-16T08:29:58;22.00;99.90
2010;DHT22;1008;47.404;8.502;2023-07-16T08:32:25;22.10;99.90
2010;DHT22;1008;47.404;8.502;2023-07-16T08:34:51;21.70;99.90
2010;DHT22;1008;47.404;8.502;2023-07-16T08:37:18;21.30;99.90
2010;DHT22;1008;47.404;8.502;2023-07-16T08:39:46;21.10;99.90
2010;DHT22;1008;47.404;8.502;2023-07-16T08:42:13;21.10;99.90
2010;DHT22;1008;47.404;8.502;2023-07-16T08:44:40;21.60;99.90
2010;DHT22;1008;47.404;8.502;2023-07-16T08:47:07;21.80;99.90
2010;DHT22;1008;47.404;8.502;2023-07-16T08:49:35;22.00;99.90
2010;DHT22;1008;47.404;8.502;2023-07-16T08:52:02;22.30;99.90
2010;DHT22;1008;47.404;8.502;2023-07-16T08:54:30;22.10;99.90
2010;DHT22;1008;47.404;8.502;2023-07-16T08:56:59;22.30;99.90
2010;DHT22;1008;47.404;8.502;2023-07-16T08:59:27;22.50;99.90
2010;DHT22;1008;47.404;8.502;2023-07-16T09:01:54;22.40;99.90
2010;DHT22;1008;47.404;8.502;2023-07-16T09:04:20;22.70;99.90
2010;DHT22;1008;47.404;8.502;2023-07-16T09:06:47;22.70;99.90
2010;DHT22;1008;47.404;8.502;2023-07-16T09:09:20;22.90;99.90
2010;DHT22;1008;47.404;8.502;2023-07-16T09:11:47;22.80;99.90
2010;DHT22;1008;47.404;8.502;2023-07-16T09:14:17;22.50;99.90
2010;DHT22;1008;47.404;8.502;2023-07-16T09:16:47;22.40;99.90
2010;DHT22;1008;47.404;8.502;2023-07-16T09:19:14;22.70;99.90
2010;DHT22;1008;47.404;8.502;2023-07-16T09:21:46;23.00;99.90
2010;DHT22;1008;47.404;8.502;2023-07-16T09:24:13;23.10;99.90
2010;DHT22;1008;47.404;8.502;2023-07-16T09:26:47;22.90;99.90
2010;DHT22;1008;47.404;8.502;2023-07-16T09:29:15;22.70;99.90
2010;DHT22;1008;47.404;8.502;2023-07-16T09:31:52;22.70;99.90
2010;DHT22;1008;47.404;8.502;2023-07-16T09:34:19;22.70;99.90
2010;DHT22;1008;47.404;8.502;2023-07-16T09:36:47;22.80;99.90
2010;DHT22;1008;47.404;8.502;2023-07-16T09:39:16;22.80;99.90
2010;DHT22;1008;47.404;8.502;2023-07-16T09:41:43;23.10;99.90
2010;DHT22;1008;47.404;8.502;2023-07-16T09:44:11;22.90;99.90
2010;DHT22;1008;47.404;8.502;2023-07-16T09:46:39;22.80;99.90
2010;DHT22;1008;47.404;8.502;2023-07-16T09:49:06;23.00;99.90
2010;DHT22;1008;47.404;8.502;2023-07-16T09:51:35;23.20;99.90
2010;DHT22;1008;47.404;8.502;2023-07-16T09:54:03;23.00;99.90
2010;DHT22;1008;47.404;8.502;2023-07-16T09:56:34;22.90;99.90
2010;DHT22;1008;47.404;8.502;2023-07-16T09:59:02;23.10;99.90
2010;DHT22;1008;47.404;8.502;2023-07-16T10:01:32;23.20;99.90
2010;DHT22;1008;47.404;8.502;2023-07-16T10:04:15;23.20;99.90
2010;DHT22;1008;47.404;8.502;2023-07-16T10:06:52;23.40;99.90
2010;DHT22;1008;47.404;8.502;2023-07-16T10:09:33;23.60;99.90
2010;DHT22;1008;47.404;8.502;2023-07-16T10:12:13;23.60;99.90
2010;DHT22;1008;47.404;8.502;2023-07-16T10:14:42;23.60;99.90
2010;DHT22;1008;47.404;8.502;2023-07-16T10:17:13;23.40;99.90
2010;DHT22;1008;47.404;8.502;2023-07-16T10:19:56;23.10;99.90
2010;DHT22;1008;47.404;8.502;2023-07-16T10:22:34;22.90;99.90
2010;DHT22;1008;47.404;8.502;2023-07-16T10:25:01;22.90;99.90
2010;DHT22;1008;47.404;8.502;2023-07-16T10:27:30;22.70;99.90
2010;DHT22;1008;47.404;8.502;2023-07-16T10:29:57;22.70;99.90
2010;DHT22;1008;47.404;8.502;2023-07-16T10:32:27;22.90;99.90
2010;DHT22;1008;47.404;8.502;2023-07-16T10:34:56;23.20;99.90
2010;DHT22;1008;47.404;8.502;2023-07-16T10:37:23;23.50;99.90
2010;DHT22;1008;47.404;8.502;2023-07-16T10:39:51;23.40;99.90
2010;DHT22;1008;47.404;8.502;2023-07-16T10:42:19;23.40;99.90
2010;DHT22;1008;47.404;8.502;2023-07-16T10:44:48;23.40;99.90
2010;DHT22;1008;47.404;8.502;2023-07-16T10:47:19;23.50;99.90
2010;DHT22;1008;47.404;8.502;2023-07-16T10:49:47;23.40;99.90
2010;DHT22;1008;47.404;8.502;2023-07-16T10:52:15;23.30;99.90
2010;DHT22;1008;47.404;8.502;2023-07-16T10:54:42;23.60;99.90
2010;DHT22;1008;47.404;8.502;2023-07-16T10:57:10;23.40;99.90
2010;DHT22;1008;47.404;8.502;2023-07-16T10:59:38;23.10;99.90
2010;DHT22;1008;47.404;8.502;2023-07-16T11:02:08;23.50;99.90
2010;DHT22;1008;47.404;8.502;2023-07-16T11:04:37;24.10;99.90
2010;DHT22;1008;47.404;8.502;2023-07-16T11:07:08;24.50;99.90
2010;DHT22;1008;47.404;8.502;2023-07-16T11:09:40;24.60;99.90
2010;DHT22;1008;47.404;8.502;2023-07-16T11:12:09;24.70;99.90
2010;DHT22;1008;47.404;8.502;2023-07-16T11:14:36;24.70;99.90
2010;DHT22;1008;47.404;8.502;2023-07-16T11:17:07;25.00;99.90
2010;DHT22;1008;47.404;8.502;2023-07-16T11:19:34;25.40;99.90
2010;DHT22;1008;47.404;8.502;2023-07-16T11:22:03;25.30;99.90
2010;DHT22;1008;47.404;8.502;2023-07-16T11:24:38;24.70;99.90
2010;DHT22;1008;47.404;8.502;2023-07-16T11:27:06;24.60;99.90
2010;DHT22;1008;47.404;8.502;2023-07-16T11:29:38;24.70;99.90
2010;DHT22;1008;47.404;8.502;2023-07-16T11:32:07;25.00;99.90
2010;DHT22;1008;47.404;8.502;2023-07-16T11:34:34;24.60;99.90
2010;DHT22;1008;47.404;8.502;2023-07-16T11:37:08;24.90;99.90
2010;DHT22;1008;47.404;8.502;2023-07-16T11:39:36;24.40;99.90
2010;DHT22;1008;47.404;8.502;2023-07-16T11:42:04;24.70;99.90
2010;DHT22;1008;47.404;8.502;2023-07-16T11:44:34;24.90;99.90
2010;DHT22;1008;47.404;8.502;2023-07-16T11:47:02;25.40;99.90
2010;DHT22;1008;47.404;8.502;2023-07-16T11:49:29;25.50;99.90
2010;DHT22;1008;47.404;8.502;2023-07-16T11:51:57;25.90;99.90
2010;DHT22;1008;47.404;8.502;2023-07-16T11:54:24;25.10;99.90
2010;DHT22;1008;47.404;8.502;2023-07-16T11:56:52;25.40;99.90
2010;DHT22;1008;47.404;8.502;2023-07-16T11:59:19;25.70;99.90
2010;DHT22;1008;47.404;8.502;2023-07-16T12:01:47;25.70;99.90
2010;DHT22;1008;47.404;8.502;2023-07-16T12:04:14;25.60;99.90
2010;DHT22;1008;47.404;8.502;2023-07-16T12:06:41;25.30;99.90
2010;DHT22;1008;47.404;8.502;2023-07-16T12:09:08;25.00;99.90
2010;DHT22;1008;47.404;8.502;2023-07-16T12:11:35;25.40;99.90
2010;DHT22;1008;47.404;8.502;2023-07-16T12:14:05;26.10;99.90
2010;DHT22;1008;47.404;8.502;2023-07-16T12:16:31;25.90;99.90
2010;DHT22;1008;47.404;8.502;2023-07-16T12:18:58;25.80;99.90
2010;DHT22;1008;47.404;8.502;2023-07-16T12:21:25;25.90;99.90
2010;DHT22;1008;47.404;8.502;2023-07-16T12:23:51;25.80;99.90
2010;DHT22;1008;47.404;8.502;2023-07-16T12:26:18;25.50;99.90
2010;DHT22;1008;47.404;8.502;2023-07-16T12:28:45;25.40;99.90
2010;DHT22;1008;47.404;8.502;2023-07-16T12:31:13;25.40;99.90
2010;DHT22;1008;47.404;8.502;2023-07-16T12:33:40;25.30;99.90
2010;DHT22;1008;47.404;8.502;2023-07-16T12:36:07;25.10;99.90
2010;DHT22;1008;47.404;8.502;2023-07-16T12:38:33;25.30;99.90
2010;DHT22;1008;47.404;8.502;2023-07-16T12:41:00;25.60;99.90
2010;DHT22;1008;47.404;8.502;2023-07-16T12:43:27;26.30;99.90
2010;DHT22;1008;47.404;8.502;2023-07-16T12:45:53;26.40;99.90
2010;DHT22;1008;47.404;8.502;2023-07-16T12:48:21;26.40;99.90
2010;DHT22;1008;47.404;8.502;2023-07-16T12:50:48;26.50;99.90
2010;DHT22;1008;47.404;8.502;2023-07-16T12:53:15;26.40;99.90
2010;DHT22;1008;47.404;8.502;2023-07-16T12:55:41;26.90;99.90
2010;DHT22;1008;47.404;8.502;2023-07-16T12:58:08;26.50;99.90
2010;DHT22;1008;47.404;8.502;2023-07-16T13:00:35;26.40;99.90
2010;DHT22;1008;47.404;8.502;2023-07-16T13:03:01;26.20;99.90
2010;DHT22;1008;47.404;8.502;2023-07-16T13:05:31;26.00;99.90
2010;DHT22;1008;47.404;8.502;2023-07-16T13:07:57;25.90;99.90
2010;DHT22;1008;47.404;8.502;2023-07-16T13:10:24;25.90;99.90
2010;DHT22;1008;47.404;8.502;2023-07-16T13:12:51;26.10;99.90
2010;DHT22;1008;47.404;8.502;2023-07-16T13:15:18;25.90;99.90
2010;DHT22;1008;47.404;8.502;2023-07-16T13:17:44;25.60;99.90
2010;DHT22;1008;47.404;8.502;2023-07-16T13:20:12;25.80;99.90
2010;DHT22;1008;47.404;8.502;2023-07-16T13:22:40;25.80;99.90
2010;DHT22;1008;47.404;8.502;2023-07-16T13:25:07;25.80;99.90
2010;DHT22;1008;47.404;8.502;2023-07-16T13:27:34;26.10;99.90
2010;DHT22;1008;47.404;8.502;2023-07-16T13:30:01;26.50;99.90
2010;DHT22;1008;47.404;8.502;2023-07-16T13:32:27;26.30;99.90
2010;DHT22;1008;47.404;8.502;2023-07-16T13:34:54;26.70;99.90
2010;DHT22;1008;47.404;8.502;2023-07-16T13:37:21;26.70;99.90
2010;DHT22;1008;47.404;8.502;2023-07-16T13:39:49;26.90;99.90
2010;DHT22;1008;47.404;8.502;2023-07-16T13:42:15;26.90;99.90
2010;DHT22;1008;47.404;8.502;2023-07-16T13:44:42;26.60;99.90
2010;DHT22;1008;47.404;8.502;2023-07-16T13:47:09;26.70;99.90
2010;DHT22;1008;47.404;8.502;2023-07-16T13:49:35;26.80;99.90
2010;DHT22;1008;47.404;8.502;2023-07-16T13:52:03;26.90;99.90
2010;DHT22;1008;47.404;8.502;2023-07-16T13:54:30;27.20;99.90
2010;DHT22;1008;47.404;8.502;2023-07-16T13:56:58;27.30;99.90
2010;DHT22;1008;47.404;8.502;2023-07-16T13:59:24;27.20;99.90
2010;DHT22;1008;47.404;8.502;2023-07-16T14:01:59;27.00;99.90
2010;DHT22;1008;47.404;8.502;2023-07-16T14:04:26;26.90;99.90
2010;DHT22;1008;47.404;8.502;2023-07-16T14:06:53;26.60;99.90
2010;DHT22;1008;47.404;8.502;2023-07-16T14:09:20;26.40;99.90
2010;DHT22;1008;47.404;8.502;2023-07-16T14:11:47;26.20;99.90
2010;DHT22;1008;47.404;8.502;2023-07-16T14:14:15;25.90;99.90
2010;DHT22;1008;47.404;8.502;2023-07-16T14:16:42;26.10;99.90
2010;DHT22;1008;47.404;8.502;2023-07-16T14:19:09;26.60;99.90
2010;DHT22;1008;47.404;8.502;2023-07-16T14:21:37;26.90;99.90
2010;DHT22;1008;47.404;8.502;2023-07-16T14:24:04;27.00;99.90
2010;DHT22;1008;47.404;8.502;2023-07-16T14:26:31;27.00;99.90
2010;DHT22;1008;47.404;8.502;2023-07-16T14:28:58;27.10;99.90
2010;DHT22;1008;47.404;8.502;2023-07-16T14:31:26;27.40;99.90
2010;DHT22;1008;47.404;8.502;2023-07-16T14:33:53;28.20;99.90
2010;DHT22;1008;47.404;8.502;2023-07-16T14:36:20;28.30;99.90
2010;DHT22;1008;47.404;8.502;2023-07-16T14:38:47;28.40;99.90
2010;DHT22;1008;47.404;8.502;2023-07-16T14:41:14;28.70;99.90
2010;DHT22;1008;47.404;8.502;2023-07-16T14:43:40;28.80;99.30
2010;DHT22;1008;47.404;8.502;2023-07-16T14:46:07;28.60;96.90
2010;DHT22;1008;47.404;8.502;2023-07-16T14:48:42;28.30;98.30
2010;DHT22;1008;47.404;8.502;2023-07-16T14:51:09;28.30;99.00
2010;DHT22;1008;47.404;8.502;2023-07-16T14:53:36;28.60;99.90
2010;DHT22;1008;47.404;8.502;2023-07-16T14:56:03;28.90;99.00
2010;DHT22;1008;47.404;8.502;2023-07-16T14:58:31;29.00;99.60
2010;DHT22;1008;47.404;8.502;2023-07-16T15:00:59;28.90;98.40
2010;DHT22;1008;47.404;8.502;2023-07-16T15:03:26;28.70;98.10
2010;DHT22;1008;47.404;8.502;2023-07-16T15:05:57;28.70;98.00
2010;DHT22;1008;47.404;8.502;2023-07-16T15:08:24;28.90;99.90
2010;DHT22;1008;47.404;8.502;2023-07-16T15:10:51;28.80;97.50
2010;DHT22;1008;47.404;8.502;2023-07-16T15:13:21;28.30;97.60
2010;DHT22;1008;47.404;8.502;2023-07-16T15:15:48;28.50;99.90
2010;DHT22;1008;47.404;8.502;2023-07-16T15:18:15;28.60;97.80
2010;DHT22;1008;47.404;8.502;2023-07-16T15:20:42;27.40;96.40
2010;DHT22;1008;47.404;8.502;2023-07-16T15:23:10;27.60;99.90
2010;DHT22;1008;47.404;8.502;2023-07-16T15:25:36;27.40;99.20
2010;DHT22;1008;47.404;8.502;2023-07-16T15:28:03;27.40;99.90
2010;DHT22;1008;47.404;8.502;2023-07-16T15:30:30;27.40;99.60
2010;DHT22;1008;47.404;8.502;2023-07-16T15:32:57;27.00;99.70
2010;DHT22;1008;47.404;8.502;2023-07-16T15:35:23;27.00;99.90
2010;DHT22;1008;47.404;8.502;2023-07-16T15:37:50;27.00;99.90
2010;DHT22;1008;47.404;8.502;2023-07-16T15:40:18;27.40;99.90
2010;DHT22;1008;47.404;8.502;2023-07-16T15:42:45;27.80;99.90
2010;DHT22;1008;47.404;8.502;2023-07-16T15:45:12;27.70;99.60
2010;DHT22;1008;47.404;8.502;2023-07-16T15:47:41;27.40;99.30
2010;DHT22;1008;47.404;8.502;2023-07-16T15:50:09;27.60;99.70
2010;DHT22;1008;47.404;8.502;2023-07-16T15:52:36;27.40;99.30
2010;DHT22;1008;47.404;8.502;2023-07-16T15:55:04;27.50;99.10
2010;DHT22;1008;47.404;8.502;2023-07-16T15:57:32;27.50;99.60
2010;DHT22;1008;47.404;8.502;2023-07-16T15:59:59;27.40;99.30
2010;DHT22;1008;47.404;8.502;2023-07-16T16:02:25;27.40;99.90
2010;DHT22;1008;47.404;8.502;2023-07-16T16:04:52;27.50;98.70
2010;DHT22;1008;47.404;8.502;2023-07-16T16:07:19;27.40;99.80